Time;durP1;ratioP1;P1;durP2;ratioP2;P2;SDS_P1;SDS_P2;PMS_P1;PMS_P2;Temp;Humidity;BMP_temperature;BMP_pressure;BME280_temperature;BME280_humidity;BME280_pressure;Samples;Min_cycle;Max_cycle;Signal;HPM_P1;HPM_P2
2023/12/11 00:00:29;;;;;;;13.55;3.03;;;10.40;98.20;;;;;;5023959;28;20124;-50
2023/12/11 00:02:55;;;;;;;18.15;3.10;;;10.40;98.30;;;;;;5024162;28;20038;-50
2023/12/11 00:05:21;;;;;;;12.60;3.20;;;10.40;98.40;;;;;;5024075;28;20065;-50
2023/12/11 00:07:47;;;;;;;14.55;3.60;;;10.40;98.30;;;;;;5025279;28;20026;-50
2023/12/11 00:10:13;;;;;;;14.88;3.20;;;10.40;98.50;;;;;;5024107;28;20026;-50
2023/12/11 00:12:39;;;;;;;14.48;3.72;;;10.40;98.70;;;;;;5025258;28;20026;-50
2023/12/11 00:15:05;;;;;;;11.13;2.95;;;10.40;98.70;;;;;;5025115;28;20048;-49
2023/12/11 00:17:30;;;;;;;14.35;3.33;;;10.40;98.80;;;;;;5023848;28;20385;-50
2023/12/11 00:19:56;;;;;;;12.02;2.92;;;10.40;98.80;;;;;;5023897;28;20030;-50
2023/12/11 00:22:22;;;;;;;16.00;3.28;;;10.40;98.80;;;;;;5023868;28;20038;-50
2023/12/11 00:24:47;;;;;;;11.27;3.00;;;10.40;98.80;;;;;;5025288;28;20112;-49
2023/12/11 00:27:13;;;;;;;9.45;3.08;;;10.40;98.80;;;;;;5022963;28;20042;-50
2023/12/11 00:29:39;;;;;;;8.35;2.58;;;10.40;98.90;;;;;;5025299;28;20029;-49
2023/12/11 00:32:05;;;;;;;14.35;3.17;;;10.30;98.90;;;;;;5023744;28;20034;-50
2023/12/11 00:34:31;;;;;;;15.35;2.83;;;10.40;98.90;;;;;;5024784;28;20026;-50
2023/12/11 00:36:57;;;;;;;15.60;3.28;;;10.40;98.90;;;;;;5023711;28;20041;-50
2023/12/11 00:39:22;;;;;;;12.40;2.85;;;10.40;99.00;;;;;;5024966;28;20026;-50
2023/12/11 00:41:48;;;;;;;11.82;2.53;;;10.30;99.00;;;;;;5024930;28;20041;-50
2023/12/11 00:44:14;;;;;;;11.00;2.67;;;10.40;99.20;;;;;;5024795;28;20021;-50
2023/12/11 00:46:40;;;;;;;10.27;2.92;;;10.30;99.30;;;;;;5024710;28;20139;-50
2023/12/11 00:49:05;;;;;;;7.32;2.85;;;10.30;99.30;;;;;;5025068;28;20030;-49
2023/12/11 00:51:31;;;;;;;10.75;2.80;;;10.30;99.50;;;;;;5007087;28;20056;-49
2023/12/11 00:53:57;;;;;;;13.27;2.63;;;10.30;99.50;;;;;;5023974;28;20415;-50
2023/12/11 00:56:22;;;;;;;9.82;2.35;;;10.30;99.60;;;;;;5023635;28;20057;-50
2023/12/11 00:58:48;;;;;;;9.82;2.53;;;10.30;99.70;;;;;;5023447;28;20108;-49
2023/12/11 01:01:13;;;;;;;6.20;2.55;;;10.30;99.70;;;;;;5023433;28;20034;-50
2023/12/11 01:03:39;;;;;;;10.07;2.75;;;10.30;99.80;;;;;;5024468;28;20026;-49
2023/12/11 01:06:05;;;;;;;10.75;2.22;;;10.30;99.80;;;;;;5023176;28;20390;-50
2023/12/11 01:08:31;;;;;;;9.27;2.58;;;10.30;99.80;;;;;;5023196;28;20033;-50
2023/12/11 01:10:57;;;;;;;6.25;2.15;;;10.30;99.90;;;;;;5006869;28;20120;-49
2023/12/11 01:13:23;;;;;;;7.35;2.50;;;10.30;99.90;;;;;;5023201;28;20022;-50
2023/12/11 01:15:49;;;;;;;7.95;2.55;;;10.30;99.90;;;;;;5022934;28;20042;-50
2023/12/11 01:18:15;;;;;;;8.13;2.25;;;10.30;99.90;;;;;;5024288;28;20036;-50
2023/12/11 01:20:40;;;;;;;8.82;2.47;;;10.30;99.90;;;;;;5022878;28;20042;-50
2023/12/11 01:23:06;;;;;;;13.95;2.92;;;10.30;99.90;;;;;;5023066;28;20030;-50
2023/12/11 01:25:31;;;;;;;11.02;2.60;;;10.30;99.90;;;;;;5006110;28;20030;-50
2023/12/11 01:27:57;;;;;;;8.23;2.20;;;10.30;99.90;;;;;;5022878;28;20042;-49
2023/12/11 01:30:23;;;;;;;5.53;1.63;;;10.30;99.90;;;;;;5022531;28;20079;-50
2023/12/11 01:32:49;;;;;;;5.10;1.80;;;10.30;99.90;;;;;;5024068;28;20034;-49
2023/12/11 01:35:14;;;;;;;4.10;2.10;;;10.30;99.90;;;;;;5022869;28;20033;-49
2023/12/11 01:37:42;;;;;;;9.00;2.17;;;10.30;99.90;;;;;;5022569;28;20026;-49
2023/12/11 01:40:09;;;;;;;10.63;2.08;;;10.20;99.90;;;;;;5022570;28;20030;-50
2023/12/11 01:42:34;;;;;;;8.00;2.13;;;10.30;99.90;;;;;;5022561;28;20038;-50
2023/12/11 01:45:00;;;;;;;7.45;1.75;;;10.20;99.90;;;;;;5022690;28;20036;-50
2023/12/11 01:47:26;;;;;;;5.75;1.98;;;10.20;99.90;;;;;;5023977;28;20038;-50
2023/12/11 01:49:51;;;;;;;14.43;2.03;;;10.30;99.90;;;;;;5022664;28;20049;-50
2023/12/11 01:52:17;;;;;;;11.10;2.50;;;10.20;99.90;;;;;;5022631;28;20030;-50
2023/12/11 01:54:43;;;;;;;5.78;1.98;;;10.30;99.90;;;;;;5022488;28;20489;-50
2023/12/11 01:57:08;;;;;;;4.90;1.60;;;10.20;99.90;;;;;;5022317;28;20030;-50
2023/12/11 01:59:35;;;;;;;6.03;1.48;;;10.30;99.90;;;;;;5022133;28;20034;-50
2023/12/11 02:02:02;;;;;;;7.28;1.73;;;10.20;99.90;;;;;;5022505;28;20034;-50
2023/12/11 02:04:28;;;;;;;3.25;1.42;;;10.20;99.90;;;;;;5022434;28;20030;-49
2023/12/11 02:06:54;;;;;;;9.35;1.92;;;10.20;99.90;;;;;;5022403;28;20034;-50
2023/12/11 02:09:19;;;;;;;4.85;1.83;;;10.30;99.90;;;;;;5022076;28;20089;-50
2023/12/11 02:11:45;;;;;;;4.07;1.30;;;10.20;99.90;;;;;;5022287;28;20030;-49
2023/12/11 02:14:10;;;;;;;5.70;1.63;;;10.30;99.90;;;;;;5022283;28;20474;-50
2023/12/11 02:16:36;;;;;;;4.10;1.67;;;10.30;99.90;;;;;;5023766;28;20106;-49
2023/12/11 02:19:02;;;;;;;4.47;1.20;;;10.20;99.90;;;;;;5022174;28;20033;-50
2023/12/11 02:21:28;;;;;;;6.00;1.77;;;10.20;99.90;;;;;;5022200;28;20026;-49
2023/12/11 02:24:01;;;;;;;3.78;1.30;;;10.20;99.90;;;;;;5022329;28;20551;-50
2023/12/11 02:26:27;;;;;;;3.75;1.63;;;10.30;99.90;;;;;;5023478;28;20041;-50
2023/12/11 02:28:52;;;;;;;7.28;1.70;;;10.20;99.90;;;;;;5022191;28;20022;-50
2023/12/11 02:31:18;;;;;;;5.65;1.40;;;10.20;99.90;;;;;;5023331;28;20413;-49
2023/12/11 02:33:43;;;;;;;5.07;1.30;;;10.20;99.90;;;;;;5022003;28;20037;-49
2023/12/11 02:36:09;;;;;;;5.03;1.30;;;10.20;99.90;;;;;;5023213;28;20034;-49
2023/12/11 02:38:35;;;;;;;3.53;1.33;;;10.20;99.90;;;;;;5023144;28;20030;-50
2023/12/11 02:41:00;;;;;;;2.70;1.23;;;10.20;99.90;;;;;;5023121;28;20034;-50
2023/12/11 02:43:26;;;;;;;3.78;1.20;;;10.20;99.90;;;;;;5021824;28;20037;-50
2023/12/11 02:45:51;;;;;;;7.35;1.40;;;10.20;99.90;;;;;;5021819;28;20034;-50
2023/12/11 02:48:18;;;;;;;6.20;1.10;;;10.20;99.90;;;;;;5023188;28;20051;-50
2023/12/11 02:50:44;;;;;;;4.68;1.30;;;10.20;99.90;;;;;;5022378;28;20033;-49
2023/12/11 02:53:09;;;;;;;2.35;1.30;;;10.20;99.90;;;;;;5026431;28;20053;-50
2023/12/11 02:55:35;;;;;;;3.53;1.27;;;10.20;99.90;;;;;;5025215;28;20037;-49
2023/12/11 02:58:02;;;;;;;3.55;1.23;;;10.20;99.90;;;;;;5008809;28;20434;-50
2023/12/11 03:00:29;;;;;;;6.40;1.65;;;10.20;99.90;;;;;;5026371;28;20047;-49
2023/12/11 03:02:54;;;;;;;3.50;1.30;;;10.20;99.90;;;;;;5025357;28;20053;-50
2023/12/11 03:05:20;;;;;;;4.10;1.30;;;10.30;99.90;;;;;;5025049;28;20075;-50
2023/12/11 03:07:45;;;;;;;3.35;1.10;;;10.30;99.90;;;;;;5026228;28;20105;-50
2023/12/11 03:10:11;;;;;;;4.43;1.20;;;10.30;99.90;;;;;;5026064;28;20030;-50
2023/12/11 03:12:37;;;;;;;4.10;1.65;;;10.20;99.90;;;;;;5025884;28;20030;-50
2023/12/11 03:15:04;;;;;;;3.45;0.80;;;10.30;99.90;;;;;;5026036;28;20030;-49
2023/12/11 03:17:29;;;;;;;1.80;0.70;;;10.30;99.90;;;;;;5025137;28;20056;-50
2023/12/11 03:19:55;;;;;;;4.40;1.27;;;10.30;99.90;;;;;;5025229;28;20033;-49
2023/12/11 03:22:23;;;;;;;2.80;1.10;;;10.20;99.90;;;;;;5025920;28;20557;-49
2023/12/11 03:24:49;;;;;;;3.50;1.05;;;10.30;99.90;;;;;;5024788;28;20043;-50
2023/12/11 03:27:14;;;;;;;3.63;1.10;;;10.30;99.90;;;;;;5024590;28;20065;-50
2023/12/11 03:29:41;;;;;;;3.85;1.23;;;10.30;99.90;;;;;;5024695;28;20094;-50
2023/12/11 03:32:07;;;;;;;1.50;0.80;;;10.30;99.90;;;;;;5024471;28;20034;-50
2023/12/11 03:34:33;;;;;;;3.75;1.02;;;10.30;99.90;;;;;;5024240;28;20036;-50
2023/12/11 03:36:58;;;;;;;1.35;0.70;;;10.30;99.90;;;;;;5024447;28;20037;-50
2023/12/11 03:39:25;;;;;;;3.30;0.80;;;10.30;99.90;;;;;;5024614;28;20037;-49
2023/12/11 03:41:51;;;;;;;2.15;0.90;;;10.30;99.90;;;;;;5025667;28;20113;-50
2023/12/11 03:44:16;;;;;;;1.98;0.70;;;10.30;99.90;;;;;;5024592;28;20036;-50
2023/12/11 03:46:42;;;;;;;2.15;0.90;;;10.30;99.90;;;;;;5008053;28;20034;-50
2023/12/11 03:49:07;;;;;;;5.00;1.20;;;10.30;99.90;;;;;;5024303;28;20030;-50
2023/12/11 03:51:33;;;;;;;2.92;1.10;;;10.30;99.90;;;;;;5024207;28;20030;-50
2023/12/11 03:54:00;;;;;;;3.58;1.17;;;10.20;99.90;;;;;;5025770;28;20034;-49
2023/12/11 03:56:27;;;;;;;1.70;0.88;;;10.30;99.90;;;;;;5008007;28;20026;-50
2023/12/11 03:58:52;;;;;;;3.25;1.23;;;10.30;99.90;;;;;;5024322;28;20026;-50
2023/12/11 04:01:18;;;;;;;1.65;0.90;;;10.30;99.90;;;;;;5024259;28;20045;-50
2023/12/11 04:03:43;;;;;;;2.55;0.93;;;10.30;99.90;;;;;;5022905;28;20041;-50
2023/12/11 04:06:09;;;;;;;2.88;1.00;;;10.30;99.90;;;;;;5025145;28;20048;-50
2023/12/11 04:08:39;;;;;;;1.45;0.70;;;10.30;99.90;;;;;;5023962;28;20489;-50
2023/12/11 04:11:05;;;;;;;2.58;0.90;;;10.30;99.90;;;;;;5023784;28;20064;-50
2023/12/11 04:13:31;;;;;;;2.47;0.90;;;10.30;99.90;;;;;;5024152;28;20030;-50
2023/12/11 04:15:56;;;;;;;1.17;0.75;;;10.30;99.90;;;;;;5024111;28;20026;-50
2023/12/11 04:18:22;;;;;;;3.83;1.10;;;10.30;99.90;;;;;;5024022;28;20377;-50
2023/12/11 04:20:47;;;;;;;1.63;0.80;;;10.30;99.90;;;;;;5023874;28;20032;-50
2023/12/11 04:23:13;;;;;;;3.45;1.27;;;10.30;99.90;;;;;;5023936;28;20044;-50
2023/12/11 04:25:39;;;;;;;1.92;1.00;;;10.30;99.90;;;;;;5007474;28;20038;-50
2023/12/11 04:28:04;;;;;;;1.27;0.70;;;10.30;99.90;;;;;;5024567;28;20033;-50
2023/12/11 04:30:30;;;;;;;2.90;1.00;;;10.30;99.90;;;;;;5025179;28;20093;-49
2023/12/11 04:32:55;;;;;;;2.25;0.80;;;10.20;99.90;;;;;;5023739;28;20025;-50
2023/12/11 04:35:21;;;;;;;1.10;0.60;;;10.20;99.90;;;;;;5023609;28;20018;-50
2023/12/11 04:37:47;;;;;;;3.95;1.17;;;10.30;99.90;;;;;;5023700;28;20022;-50
2023/12/11 04:40:12;;;;;;;3.25;0.80;;;10.30;99.90;;;;;;5024929;28;20473;-50
2023/12/11 04:42:38;;;;;;;2.22;0.95;;;10.20;99.90;;;;;;5023467;28;20053;-50
2023/12/11 04:45:04;;;;;;;1.77;0.90;;;10.30;99.90;;;;;;5023614;28;20026;-50
2023/12/11 04:47:29;;;;;;;4.00;0.80;;;10.30;99.90;;;;;;5023481;28;20030;-50
2023/12/11 04:49:55;;;;;;;1.55;0.73;;;10.30;99.90;;;;;;5024686;28;20037;-50
2023/12/11 04:52:21;;;;;;;1.63;0.90;;;10.30;99.90;;;;;;5024815;28;20079;-50
2023/12/11 04:54:46;;;;;;;1.23;0.70;;;10.30;99.90;;;;;;5022374;28;20026;-48
2023/12/11 04:57:12;;;;;;;3.17;0.85;;;10.30;99.90;;;;;;5024435;28;20064;-50
2023/12/11 04:59:38;;;;;;;1.27;0.70;;;10.30;99.90;;;;;;5007468;28;20034;-50
2023/12/11 05:02:03;;;;;;;1.83;0.70;;;10.30;99.90;;;;;;5024779;28;20526;-50
2023/12/11 05:04:29;;;;;;;2.08;0.68;;;10.30;99.90;;;;;;5024433;28;20033;-50
2023/12/11 05:06:54;;;;;;;2.13;0.93;;;10.30;99.90;;;;;;5023193;28;20038;-49
2023/12/11 05:09:20;;;;;;;1.05;0.60;;;10.30;99.90;;;;;;5024391;28;20497;-50
2023/12/11 05:11:46;;;;;;;3.22;0.88;;;10.30;99.90;;;;;;5024324;28;20040;-50
2023/12/11 05:14:12;;;;;;;0.80;0.50;;;10.30;99.90;;;;;;5024006;28;20424;-50
2023/12/11 05:16:37;;;;;;;1.05;0.60;;;10.30;99.90;;;;;;5023193;28;20022;-50
2023/12/11 05:19:03;;;;;;;0.60;0.43;;;10.30;99.90;;;;;;5024261;28;20042;-50
2023/12/11 05:21:28;;;;;;;1.35;0.75;;;10.30;99.90;;;;;;5024410;28;20035;-50
2023/12/11 05:23:55;;;;;;;2.35;0.80;;;10.30;99.90;;;;;;5023022;28;20033;-50
2023/12/11 05:26:20;;;;;;;2.53;0.73;;;10.30;99.90;;;;;;5022862;28;20044;-49
2023/12/11 05:28:47;;;;;;;2.53;0.60;;;10.40;99.90;;;;;;5023184;28;20034;-50
2023/12/11 05:31:14;;;;;;;0.93;0.50;;;10.30;99.90;;;;;;5022461;28;20087;-50
2023/12/11 05:33:39;;;;;;;1.60;0.70;;;10.40;99.90;;;;;;5022957;28;20034;-50
2023/12/11 05:36:05;;;;;;;2.22;0.90;;;10.40;99.90;;;;;;5023187;28;20094;-50
2023/12/11 05:38:31;;;;;;;0.82;0.50;;;10.40;99.90;;;;;;5022583;28;20030;-50
2023/12/11 05:40:57;;;;;;;1.10;0.60;;;10.40;99.90;;;;;;5022711;28;20117;-50
2023/12/11 05:43:22;;;;;;;0.32;0.32;;;10.40;99.90;;;;;;5022583;28;20040;-50
2023/12/11 05:45:48;;;;;;;2.33;0.80;;;10.40;99.90;;;;;;5023691;28;20034;-49
2023/12/11 05:48:14;;;;;;;1.40;0.60;;;10.40;99.90;;;;;;5022687;28;20022;-50
2023/12/11 05:50:40;;;;;;;2.25;0.85;;;10.40;99.90;;;;;;5022277;28;20041;-50
2023/12/11 05:53:05;;;;;;;1.65;0.95;;;10.40;99.90;;;;;;5023690;28;20539;-50
2023/12/11 05:55:31;;;;;;;1.80;0.80;;;10.40;99.90;;;;;;5023554;28;20335;-50
2023/12/11 05:57:56;;;;;;;1.58;0.70;;;10.40;99.90;;;;;;5022501;28;20081;-50
2023/12/11 06:00:22;;;;;;;2.60;0.55;;;10.40;99.90;;;;;;5023494;28;20058;-50
2023/12/11 06:02:48;;;;;;;1.15;0.55;;;10.40;99.90;;;;;;5022271;28;20042;-50
2023/12/11 06:05:14;;;;;;;1.38;0.75;;;10.40;99.90;;;;;;5022335;28;20033;-50
2023/12/11 06:07:39;;;;;;;1.58;0.63;;;10.40;99.90;;;;;;5023581;28;20057;-49
2023/12/11 06:10:05;;;;;;;2.10;0.80;;;10.40;99.90;;;;;;5005767;28;20090;-50
2023/12/11 06:12:32;;;;;;;0.63;0.28;;;10.40;99.90;;;;;;5023551;28;20030;-50
2023/12/11 06:14:57;;;;;;;1.05;0.60;;;10.40;99.90;;;;;;5023459;28;20022;-50
2023/12/11 06:17:23;;;;;;;2.55;0.80;;;10.40;99.90;;;;;;5022276;28;20030;-49
2023/12/11 06:19:49;;;;;;;1.88;0.60;;;10.40;99.90;;;;;;5005734;28;20044;-50
2023/12/11 06:22:14;;;;;;;2.60;0.70;;;10.40;99.90;;;;;;5005769;28;20045;-49
2023/12/11 06:24:40;;;;;;;1.00;0.60;;;10.40;99.90;;;;;;5023310;28;20032;-50
2023/12/11 06:27:06;;;;;;;0.73;0.60;;;10.40;99.90;;;;;;5024396;28;20048;-50
2023/12/11 06:29:32;;;;;;;2.13;0.50;;;10.40;99.90;;;;;;5025390;28;20446;-50
2023/12/11 06:31:57;;;;;;;0.77;0.45;;;10.40;99.90;;;;;;5026883;28;20055;-50
2023/12/11 06:34:23;;;;;;;1.13;0.50;;;10.40;99.90;;;;;;5025616;28;20096;-50
2023/12/11 06:36:49;;;;;;;1.17;0.68;;;10.40;99.90;;;;;;5013600;28;20038;-50
2023/12/11 06:39:15;;;;;;;1.80;0.85;;;10.40;99.90;;;;;;5005607;28;20431;-50
2023/12/11 06:41:40;;;;;;;2.58;0.80;;;10.40;99.90;;;;;;5004789;28;20077;-50
2023/12/11 06:44:06;;;;;;;1.33;0.55;;;10.40;99.90;;;;;;5005133;28;20478;-49
2023/12/11 06:46:31;;;;;;;1.00;0.55;;;10.40;99.90;;;;;;5003511;28;20026;-50
2023/12/11 06:48:57;;;;;;;1.05;0.60;;;10.40;99.90;;;;;;5005462;28;20027;-50
2023/12/11 06:51:26;;;;;;;2.58;1.08;;;10.40;99.90;;;;;;5005103;28;20057;-50
2023/12/11 06:53:58;;;;;;;2.05;0.70;;;10.40;99.90;;;;;;5005729;28;20033;-50
2023/12/11 06:56:24;;;;;;;1.92;0.60;;;10.40;99.90;;;;;;5006760;28;20022;-50
2023/12/11 06:58:49;;;;;;;0.47;0.30;;;10.40;99.90;;;;;;5005283;28;20503;-50
2023/12/11 07:01:16;;;;;;;1.48;0.70;;;10.40;99.90;;;;;;5005644;28;20042;-50
2023/12/11 07:03:41;;;;;;;1.63;0.63;;;10.40;99.90;;;;;;5005475;28;20030;-49
2023/12/11 07:06:08;;;;;;;1.23;0.50;;;10.40;99.90;;;;;;5007235;28;20062;-50
2023/12/11 07:08:33;;;;;;;0.85;0.63;;;10.50;99.90;;;;;;5025988;28;20026;-50
2023/12/11 07:10:59;;;;;;;1.30;0.70;;;10.50;99.90;;;;;;5024783;28;20036;-50
2023/12/11 07:13:25;;;;;;;1.92;0.88;;;10.50;99.90;;;;;;5008415;28;20025;-50
2023/12/11 07:15:51;;;;;;;1.58;0.40;;;10.50;99.90;;;;;;5015111;28;20030;-50
2023/12/11 07:18:17;;;;;;;4.03;0.90;;;10.50;99.90;;;;;;5005240;28;20069;-50
2023/12/11 07:20:43;;;;;;;0.98;0.60;;;10.50;99.90;;;;;;5005058;28;20038;-49
2023/12/11 07:23:10;;;;;;;0.98;0.50;;;10.50;99.90;;;;;;5004500;28;20091;-50
2023/12/11 07:25:38;;;;;;;2.03;0.65;;;10.50;99.90;;;;;;5017412;28;20113;-50
2023/12/11 07:28:04;;;;;;;0.90;0.55;;;10.50;99.90;;;;;;5024715;28;20026;-50
2023/12/11 07:30:29;;;;;;;3.17;0.77;;;10.50;99.90;;;;;;5024453;28;20034;-50
2023/12/11 07:32:55;;;;;;;0.50;0.50;;;10.50;99.90;;;;;;5022005;28;20022;-50
2023/12/11 07:35:20;;;;;;;1.30;0.45;;;10.50;99.90;;;;;;5006047;28;20069;-50
2023/12/11 07:37:46;;;;;;;4.25;0.75;;;10.60;99.90;;;;;;5006162;28;20014;-50
2023/12/11 07:40:12;;;;;;;4.00;1.10;;;10.60;99.90;;;;;;4988889;28;20056;-50
2023/12/11 07:42:37;;;;;;;7.00;1.23;;;10.60;99.90;;;;;;4985778;28;20030;-51
2023/12/11 07:45:05;;;;;;;2.80;0.70;;;10.60;99.90;;;;;;5002040;28;20056;-50
2023/12/11 07:47:32;;;;;;;3.38;0.70;;;10.60;99.90;;;;;;5001397;28;20069;-50
2023/12/11 07:49:58;;;;;;;2.80;0.60;;;10.60;99.90;;;;;;4985232;28;20042;-50
2023/12/11 07:52:24;;;;;;;1.35;0.60;;;10.60;99.90;;;;;;4996444;28;20479;-50
2023/12/11 07:54:49;;;;;;;6.28;1.38;;;10.60;99.90;;;;;;5015187;28;20026;-49
2023/12/11 07:57:15;;;;;;;13.00;1.30;;;10.60;99.90;;;;;;5010915;28;20038;-50
2023/12/11 07:59:40;;;;;;;8.32;1.50;;;10.60;99.90;;;;;;5049031;28;20031;-50
2023/12/11 08:02:07;;;;;;;28.45;2.00;;;10.70;99.90;;;;;;5030711;28;20033;-48
2023/12/11 08:04:32;;;;;;;10.65;1.40;;;10.70;99.90;;;;;;5070393;28;20471;-49
2023/12/11 08:06:58;;;;;;;3.50;1.02;;;10.70;99.90;;;;;;5059495;28;20042;-50
2023/12/11 08:09:23;;;;;;;5.22;1.05;;;10.70;99.90;;;;;;5014118;28;20037;-50
2023/12/11 08:11:49;;;;;;;8.02;1.10;;;10.70;99.90;;;;;;5009286;28;20022;-50
2023/12/11 08:14:16;;;;;;;7.60;1.33;;;10.70;99.90;;;;;;4984365;28;20030;-50
2023/12/11 08:16:44;;;;;;;2.78;0.88;;;10.70;99.90;;;;;;5062014;28;20031;-50
2023/12/11 08:19:09;;;;;;;3.92;0.90;;;10.70;99.90;;;;;;5018588;28;20419;-50
2023/12/11 08:21:35;;;;;;;2.22;0.90;;;10.70;99.90;;;;;;5013680;28;20070;-50
2023/12/11 08:24:01;;;;;;;14.25;1.73;;;10.80;99.90;;;;;;5056462;28;20016;-50
2023/12/11 08:26:27;;;;;;;3.95;1.00;;;10.80;99.90;;;;;;5017500;28;20048;-49
2023/12/11 08:28:52;;;;;;;13.70;1.65;;;10.80;99.90;;;;;;5004561;28;20030;-49
2023/12/11 08:31:18;;;;;;;36.47;3.63;;;10.80;99.90;;;;;;5029852;28;20026;-49
2023/12/11 08:33:43;;;;;;;35.45;3.30;;;10.80;99.90;;;;;;5085006;28;20029;-50
2023/12/11 08:36:09;;;;;;;15.20;2.00;;;10.80;99.90;;;;;;4998241;28;20026;-50
2023/12/11 08:38:35;;;;;;;14.30;2.08;;;10.90;99.90;;;;;;4999817;28;20031;-49
2023/12/11 08:41:00;;;;;;;19.15;1.92;;;10.80;99.90;;;;;;5019014;28;20058;-50
2023/12/11 08:43:26;;;;;;;9.80;1.42;;;10.90;99.90;;;;;;5042832;28;20070;-50
2023/12/11 08:45:52;;;;;;;9.18;1.33;;;10.90;99.90;;;;;;5006041;28;20046;-50
2023/12/11 08:48:17;;;;;;;9.02;1.10;;;10.90;99.90;;;;;;5000485;28;20026;-50
2023/12/11 08:50:43;;;;;;;12.82;1.45;;;10.90;99.90;;;;;;4998511;28;20532;-49
2023/12/11 08:53:09;;;;;;;8.13;1.20;;;10.90;99.90;;;;;;5003177;28;20027;-49
2023/12/11 08:55:34;;;;;;;13.00;1.67;;;10.90;99.90;;;;;;4995011;28;20045;-50
2023/12/11 08:58:00;;;;;;;10.75;1.65;;;10.90;99.90;;;;;;4975318;28;20023;-50
2023/12/11 09:00:25;;;;;;;27.05;2.60;;;10.90;99.90;;;;;;4994693;28;20035;-50
2023/12/11 09:02:51;;;;;;;22.73;2.38;;;11.00;99.90;;;;;;5003481;28;20133;-50
2023/12/11 09:05:17;;;;;;;17.30;2.35;;;11.00;99.90;;;;;;5001830;28;20069;-50
2023/12/11 09:07:43;;;;;;;12.18;1.58;;;11.00;99.90;;;;;;4990980;28;20098;-50
2023/12/11 09:10:09;;;;;;;18.70;1.98;;;11.00;99.90;;;;;;5028853;28;20038;-50
2023/12/11 09:12:35;;;;;;;22.10;3.05;;;11.00;99.90;;;;;;5002430;28;20031;-50
2023/12/11 09:15:02;;;;;;;54.25;4.50;;;11.00;99.90;;;;;;5002648;28;20019;-49
2023/12/11 09:17:28;;;;;;;56.33;4.57;;;11.00;99.90;;;;;;5002812;28;20046;-48
2023/12/11 09:19:53;;;;;;;37.55;3.85;;;11.00;99.90;;;;;;5002792;28;20089;-49
2023/12/11 09:22:19;;;;;;;34.22;3.75;;;11.00;99.90;;;;;;5001724;28;20172;-50
2023/12/11 09:24:45;;;;;;;27.30;3.38;;;11.10;99.90;;;;;;5002251;28;20057;-50
2023/12/11 09:27:10;;;;;;;18.30;2.30;;;11.10;99.90;;;;;;5002244;28;20073;-50
2023/12/11 09:29:36;;;;;;;34.38;3.83;;;11.10;99.90;;;;;;5004332;28;20037;-50
2023/12/11 09:32:02;;;;;;;62.33;5.30;;;11.10;99.90;;;;;;5001930;28;20462;-50
2023/12/11 09:34:28;;;;;;;36.75;4.10;;;11.10;99.90;;;;;;5003599;28;20025;-50
2023/12/11 09:36:54;;;;;;;37.67;3.33;;;11.10;99.90;;;;;;5002090;28;20035;-49
2023/12/11 09:39:20;;;;;;;13.68;3.28;;;11.10;99.90;;;;;;5002244;28;20031;-50
2023/12/11 09:41:45;;;;;;;28.55;3.72;;;11.10;99.90;;;;;;5002034;28;20092;-50
2023/12/11 09:44:11;;;;;;;23.60;2.95;;;11.10;99.90;;;;;;5003588;28;20030;-49
2023/12/11 09:46:44;;;;;;;17.55;3.13;;;11.10;99.90;;;;;;4986391;28;20045;-49
2023/12/11 09:49:10;;;;;;;20.90;3.60;;;11.10;99.90;;;;;;4994739;28;20037;-50
2023/12/11 09:51:36;;;;;;;15.82;2.92;;;11.20;99.90;;;;;;5000382;28;20030;-50
2023/12/11 09:54:02;;;;;;;17.70;3.08;;;11.10;99.90;;;;;;5004263;28;20496;-50
2023/12/11 09:56:28;;;;;;;25.55;3.40;;;11.10;99.90;;;;;;4984747;28;20031;-50
2023/12/11 09:58:53;;;;;;;22.52;3.58;;;11.10;99.90;;;;;;4982481;28;20023;-50
2023/12/11 10:01:19;;;;;;;16.27;2.70;;;11.10;99.90;;;;;;4997471;28;20042;-50
2023/12/11 10:03:44;;;;;;;25.67;3.05;;;11.10;99.90;;;;;;5002067;28;20022;-50
2023/12/11 10:06:10;;;;;;;30.73;4.55;;;11.10;99.90;;;;;;4984655;28;20126;-50
2023/12/11 10:08:43;;;;;;;28.92;3.50;;;11.20;99.90;;;;;;5000708;28;20045;-50
2023/12/11 10:11:13;;;;;;;44.72;4.82;;;11.20;99.90;;;;;;4992608;28;20027;-50
2023/12/11 10:13:39;;;;;;;30.02;3.58;;;11.20;99.90;;;;;;5002566;28;20522;-49
2023/12/11 10:16:05;;;;;;;28.38;3.70;;;11.30;99.90;;;;;;5001930;28;20033;-50
2023/12/11 10:18:31;;;;;;;32.45;3.97;;;11.20;99.90;;;;;;5003544;28;20022;-50
2023/12/11 10:20:58;;;;;;;56.63;4.55;;;11.30;99.90;;;;;;5000999;28;20120;-50
2023/12/11 10:23:24;;;;;;;42.65;4.72;;;11.30;99.90;;;;;;5003171;28;20050;-49
2023/12/11 10:25:53;;;;;;;54.92;4.80;;;11.30;99.90;;;;;;5001397;28;20510;-50
2023/12/11 10:28:21;;;;;;;40.72;4.40;;;11.30;99.90;;;;;;4984555;28;20113;-49
2023/12/11 10:30:54;;;;;;;35.22;4.43;;;11.30;99.90;;;;;;5001486;28;20031;-49
2023/12/11 10:33:20;;;;;;;29.60;3.78;;;11.30;99.90;;;;;;5001647;28;20052;-49
2023/12/11 10:35:46;;;;;;;32.95;4.15;;;11.30;99.90;;;;;;5001512;28;20421;-50
2023/12/11 10:38:22;;;;;;;40.15;4.80;;;11.40;99.90;;;;;;5003580;28;20057;-50
2023/12/11 10:40:51;;;;;;;34.20;5.00;;;11.40;99.90;;;;;;4985988;28;20119;-49
2023/12/11 10:43:16;;;;;;;29.10;3.83;;;11.40;99.90;;;;;;5000133;28;20030;-49
2023/12/11 10:45:42;;;;;;;41.50;5.18;;;11.40;99.90;;;;;;5000729;28;20030;-49
2023/12/11 10:48:08;;;;;;;29.05;3.85;;;11.40;99.90;;;;;;5000525;28;20034;-50
2023/12/11 10:50:33;;;;;;;29.90;3.88;;;11.40;99.90;;;;;;5001550;28;20037;-50
2023/12/11 10:53:03;;;;;;;40.75;4.10;;;11.40;99.90;;;;;;5001930;28;20462;-50
2023/12/11 10:55:29;;;;;;;27.65;3.63;;;11.40;99.90;;;;;;5001640;28;20031;-49
2023/12/11 10:57:58;;;;;;;30.23;4.65;;;11.40;99.90;;;;;;4982276;28;20037;-49
2023/12/11 11:00:24;;;;;;;78.18;7.07;;;11.40;99.90;;;;;;4984143;28;20026;-50
2023/12/11 11:02:51;;;;;;;60.75;6.30;;;11.50;99.90;;;;;;5001979;28;20060;-49
2023/12/11 11:05:18;;;;;;;109.50;9.55;;;11.50;99.90;;;;;;5004511;28;20088;-50
2023/12/11 11:07:57;;;;;;;40.80;4.78;;;11.50;99.90;;;;;;5001039;28;20030;-50
2023/12/11 11:10:25;;;;;;;45.80;4.75;;;11.50;99.90;;;;;;5005656;28;20031;-50
2023/12/11 11:13:05;;;;;;;37.63;4.68;;;11.50;99.90;;;;;;5003537;28;20026;-49
2023/12/11 11:15:30;;;;;;;43.78;4.47;;;11.50;99.90;;;;;;4988292;28;20426;-49
2023/12/11 11:17:59;;;;;;;42.65;5.22;;;11.50;99.90;;;;;;5002933;28;20030;-49
2023/12/11 11:20:29;;;;;;;41.75;5.07;;;11.50;99.90;;;;;;5007072;28;20026;-50
2023/12/11 11:23:20;;;;;;;147.70;10.27;;;11.50;99.90;;;;;;5003869;28;20030;-50
2023/12/11 11:25:52;;;;;;;97.50;8.25;;;11.50;99.90;;;;;;5004340;28;20053;-50
2023/12/11 11:28:50;;;;;;;90.85;8.55;;;11.60;99.90;;;;;;5003836;28;20026;-50
2023/12/11 11:31:15;;;;;;;56.75;5.88;;;11.60;99.90;;;;;;4998806;28;20115;-50
2023/12/11 11:33:46;;;;;;;56.22;7.15;;;11.60;99.90;;;;;;5004780;28;20031;-50
2023/12/11 11:36:12;;;;;;;62.20;5.65;;;11.60;99.90;;;;;;5003684;28;20026;-49
2023/12/11 11:38:57;;;;;;;49.83;5.88;;;11.60;99.90;;;;;;5013900;28;20069;-50
2023/12/11 11:41:27;;;;;;;52.80;5.68;;;11.60;99.90;;;;;;5003897;28;20038;-50
2023/12/11 11:44:05;;;;;;;68.95;7.93;;;11.60;99.90;;;;;;5003877;28;20034;-49
2023/12/11 11:47:00;;;;;;;74.82;7.50;;;11.60;99.90;;;;;;5004882;28;20030;-50
2023/12/11 11:49:35;;;;;;;75.97;7.43;;;11.60;99.90;;;;;;4991585;28;20038;-50
2023/12/11 11:52:05;;;;;;;66.50;6.30;;;11.60;99.90;;;;;;5002348;28;20094;-50
2023/12/11 11:54:31;;;;;;;50.83;5.68;;;11.60;99.90;;;;;;4986624;28;20023;-50
2023/12/11 11:56:57;;;;;;;41.60;5.78;;;11.60;99.90;;;;;;5003503;28;20037;-50
2023/12/11 11:59:22;;;;;;;35.00;4.93;;;11.60;99.90;;;;;;5003286;28;20023;-50
2023/12/11 12:01:52;;;;;;;67.63;7.53;;;11.60;99.90;;;;;;5003776;28;20386;-50
2023/12/11 12:04:31;;;;;;;59.17;6.25;;;11.60;99.90;;;;;;5002722;28;20027;-49
2023/12/11 12:07:06;;;;;;;52.20;6.45;;;11.60;99.90;;;;;;5001851;28;20048;-50
2023/12/11 12:09:32;;;;;;;51.97;6.25;;;11.70;99.90;;;;;;4999671;28;20042;-50
2023/12/11 12:11:58;;;;;;;63.63;7.45;;;11.70;99.90;;;;;;4986998;28;20035;-49
2023/12/11 12:14:25;;;;;;;64.00;8.13;;;11.70;99.90;;;;;;5003263;28;20054;-49
2023/12/11 12:16:51;;;;;;;99.55;10.82;;;11.70;99.90;;;;;;5002659;28;20031;-50
2023/12/11 12:19:17;;;;;;;96.03;9.88;;;11.70;99.90;;;;;;5002888;28;20034;-50
2023/12/11 12:21:56;;;;;;;68.25;7.53;;;11.70;99.90;;;;;;5004440;28;20068;-50
2023/12/11 12:24:22;;;;;;;58.88;7.20;;;11.70;99.90;;;;;;5001838;28;20027;-50
2023/12/11 12:27:01;;;;;;;30.58;4.75;;;11.70;99.90;;;;;;4987159;28;20066;-50
2023/12/11 12:29:27;;;;;;;32.40;4.88;;;11.70;99.90;;;;;;5002275;28;20151;-50
2023/12/11 12:31:53;;;;;;;46.20;4.93;;;11.70;99.90;;;;;;5000555;28;20027;-50
2023/12/11 12:34:18;;;;;;;34.55;4.28;;;11.70;99.90;;;;;;5002518;28;20027;-50
2023/12/11 12:36:44;;;;;;;53.88;6.00;;;11.70;99.90;;;;;;5001097;28;20080;-50
2023/12/11 12:39:13;;;;;;;48.28;5.97;;;11.70;99.90;;;;;;5001131;28;20022;-50